Hlavní strana
METAR-TAF:

METAR-TAF

Letiště :

Archangelsk, Rusko

zeměpisná šířka: 64-30N, zeměpisná délka: 040-44E, výška: 13 m

Aktuální stav počasí

Zpráva byla vytvořena před 42 minutami, v 10:00 UTC
Východní vítr 10 kt, proměnlivý mezi severovýchodním a jihovýchodním
Teplota 25°C
Vlhkost vzduchu 41%
Tlak 1022 hPa
Viditelnost 10 km a více
Žádná oblačnost pod 1500 m, nevyskytují se cumulonimby.

METAR: ULAA 181000Z 08005MPS 040V130 CAVOK 25/11 Q1022 R08/CLRD70 NOSIG RMK QFE765/1020

Čas: 13:42 (10:42 UTC)

Předpověď počasí

Zpráva byla vytvořena před 2 hodinami a 46 minutami, v 07:56 UTC
Předpověď platná od 18 v 09 UTC do 19 v 09 UTC
Východoseverovýchodní vítr 10 kt
Viditelnost 10 km a více
Polojasno ve výšce 3000 ft
Dočasný
od 18 v 09 UTC do 18 v 15 UTC
Východní vítr 8 kt s nárazy do 19 kt

TAF: ULAA 180756Z 1809/1909 07005MPS 9999 SCT030 TEMPO 1809/1815 09004G10MPS

Stav a předpovědi počasí z více než 4 000 letišť (zprávy METAR a TAF).

Červené a žluté tečky na mapě představují dostupné meteorologické stanice.

Když kurzor umístíte na tečku, zobrazí se název stanice.

Pak kliknutím zobrazíte stav a předpověď počasí.

Chcete-li změnit mapu, kliknutím na zelené tlačítko se znaménkem +mapu přiblížíte, kliknutím na zelené tlačítko se znaménkem – mapu oddálíte a kliknutím na zelené šipky přejdete na sousední mapy.


METAR-TAF: